Terminal Aerodrome Forecast
Issued by NWS Bismarck, ND

Home | Current Version | Previous Version | Graphics & Text | Print | Product List | Glossary On
Versions: 1 2 3 4 5 6 7 8 9 10 11 12 13 14 15
000
FTUS43 KBIS 301131
TAFISN
TAF
KISN 301131Z 3012/0112 07009KT P6SM SCT250
     FM301600 08013G21KT P6SM FEW250
     FM010100 07009KT P6SM SKC=

USA.gov is the U.S. government's official web portal to all federal, state and local government web resources and services.